sensor_id;sensor_type;location;lat;lon;timestamp;P1;durP1;ratioP1;P2;durP2;ratioP2
15498;SDS011;7851;52.260;6.030;2023-05-15T00:03:12;17;;;12.1;;
15498;SDS011;7851;52.260;6.030;2023-05-15T00:03:12;15.1;;;12.5;;
15498;SDS011;7851;52.260;6.030;2023-05-15T00:03:12;17.4;;;14.2;;
15498;SDS011;7851;52.260;6.030;2023-05-15T00:03:24;14.8;;;13.1;;
15498;SDS011;7851;52.260;6.030;2023-05-15T00:04:24;17.3;;;12.4;;
15498;SDS011;7851;52.260;6.030;2023-05-15T00:05:24;14.3;;;12.8;;
15498;SDS011;7851;52.260;6.030;2023-05-15T00:06:24;15.9;;;14.2;;
15498;SDS011;7851;52.260;6.030;2023-05-15T00:07:24;17.2;;;14.2;;
15498;SDS011;7851;52.260;6.030;2023-05-15T00:08:24;16.8;;;13.2;;
15498;SDS011;7851;52.260;6.030;2023-05-15T00:09:24;16.3;;;14;;
15498;SDS011;7851;52.260;6.030;2023-05-15T00:10:24;17.6;;;13.8;;
15498;SDS011;7851;52.260;6.030;2023-05-15T00:11:24;16.4;;;14;;
15498;SDS011;7851;52.260;6.030;2023-05-15T00:12:24;20.5;;;15.1;;
15498;SDS011;7851;52.260;6.030;2023-05-15T00:13:24;18.7;;;14.7;;
15498;SDS011;7851;52.260;6.030;2023-05-15T00:14:24;17.3;;;14.4;;
15498;SDS011;7851;52.260;6.030;2023-05-15T00:15:24;19.1;;;14.5;;
15498;SDS011;7851;52.260;6.030;2023-05-15T00:16:24;18.6;;;14.6;;
15498;SDS011;7851;52.260;6.030;2023-05-15T00:17:24;18.8;;;14.2;;
15498;SDS011;7851;52.260;6.030;2023-05-15T00:18:24;15.1;;;13.6;;
15498;SDS011;7851;52.260;6.030;2023-05-15T00:19:24;16.3;;;14.4;;
15498;SDS011;7851;52.260;6.030;2023-05-15T00:20:24;14.8;;;13.2;;
15498;SDS011;7851;52.260;6.030;2023-05-15T00:21:24;17.2;;;13.1;;
15498;SDS011;7851;52.260;6.030;2023-05-15T00:22:24;16.1;;;13.7;;
15498;SDS011;7851;52.260;6.030;2023-05-15T00:23:24;17.2;;;14.1;;
15498;SDS011;7851;52.260;6.030;2023-05-15T00:24:24;19.7;;;15.3;;
15498;SDS011;7851;52.260;6.030;2023-05-15T00:25:24;19.3;;;14.7;;
15498;SDS011;7851;52.260;6.030;2023-05-15T00:26:24;18.4;;;14.1;;
15498;SDS011;7851;52.260;6.030;2023-05-15T00:27:24;16.5;;;14.8;;
15498;SDS011;7851;52.260;6.030;2023-05-15T00:28:24;18.9;;;14.3;;
15498;SDS011;7851;52.260;6.030;2023-05-15T00:29:24;18;;;15.8;;
15498;SDS011;7851;52.260;6.030;2023-05-15T00:30:24;16.4;;;13.9;;
15498;SDS011;7851;52.260;6.030;2023-05-15T00:31:24;18.3;;;15.6;;
15498;SDS011;7851;52.260;6.030;2023-05-15T00:32:24;17.9;;;14.9;;
15498;SDS011;7851;52.260;6.030;2023-05-15T00:33:24;19.9;;;15.7;;
15498;SDS011;7851;52.260;6.030;2023-05-15T00:34:24;18.3;;;14.2;;
15498;SDS011;7851;52.260;6.030;2023-05-15T00:35:24;16.7;;;14.9;;
15498;SDS011;7851;52.260;6.030;2023-05-15T00:36:24;17.1;;;14.7;;
15498;SDS011;7851;52.260;6.030;2023-05-15T00:37:24;17.2;;;14.1;;
15498;SDS011;7851;52.260;6.030;2023-05-15T00:38:24;19.3;;;15.5;;
15498;SDS011;7851;52.260;6.030;2023-05-15T00:39:24;17.1;;;14.4;;
15498;SDS011;7851;52.260;6.030;2023-05-15T00:40:24;16.9;;;13.8;;
15498;SDS011;7851;52.260;6.030;2023-05-15T00:41:24;15.8;;;14.1;;
15498;SDS011;7851;52.260;6.030;2023-05-15T00:42:24;16.4;;;14.7;;
15498;SDS011;7851;52.260;6.030;2023-05-15T00:43:24;17.1;;;15.3;;
15498;SDS011;7851;52.260;6.030;2023-05-15T00:44:24;17.3;;;14.6;;
15498;SDS011;7851;52.260;6.030;2023-05-15T00:45:24;18.3;;;14.7;;
15498;SDS011;7851;52.260;6.030;2023-05-15T00:46:24;16;;;14.4;;
15498;SDS011;7851;52.260;6.030;2023-05-15T00:47:24;21.7;;;15.2;;
15498;SDS011;7851;52.260;6.030;2023-05-15T00:48:24;18.3;;;13.9;;
15498;SDS011;7851;52.260;6.030;2023-05-15T00:49:24;16;;;13.7;;
15498;SDS011;7851;52.260;6.030;2023-05-15T00:50:24;16.2;;;14.5;;
15498;SDS011;7851;52.260;6.030;2023-05-15T00:51:24;15;;;13.5;;
15498;SDS011;7851;52.260;6.030;2023-05-15T00:52:24;16.8;;;15;;
15498;SDS011;7851;52.260;6.030;2023-05-15T00:53:24;20.6;;;16.4;;
15498;SDS011;7851;52.260;6.030;2023-05-15T00:54:24;19.2;;;16.4;;
15498;SDS011;7851;52.260;6.030;2023-05-15T00:55:24;17.6;;;15.6;;
15498;SDS011;7851;52.260;6.030;2023-05-15T00:56:24;22.1;;;15;;
15498;SDS011;7851;52.260;6.030;2023-05-15T00:57:24;17.7;;;14.8;;
15498;SDS011;7851;52.260;6.030;2023-05-15T00:58:25;19.1;;;14.9;;
15498;SDS011;7851;52.260;6.030;2023-05-15T00:59:25;17.1;;;14.1;;
15498;SDS011;7851;52.260;6.030;2023-05-15T01:00:24;16.2;;;14;;
15498;SDS011;7851;52.260;6.030;2023-05-15T01:01:24;16.2;;;13.7;;
15498;SDS011;7851;52.260;6.030;2023-05-15T01:02:24;17.3;;;14.9;;
15498;SDS011;7851;52.260;6.030;2023-05-15T01:03:24;16;;;14.3;;
15498;SDS011;7851;52.260;6.030;2023-05-15T01:04:24;17.3;;;15;;
15498;SDS011;7851;52.260;6.030;2023-05-15T01:05:24;17.8;;;14.9;;
15498;SDS011;7851;52.260;6.030;2023-05-15T01:06:24;21.2;;;14.4;;
15498;SDS011;7851;52.260;6.030;2023-05-15T01:07:24;18.8;;;15.2;;
15498;SDS011;7851;52.260;6.030;2023-05-15T01:08:25;17.9;;;14.2;;
15498;SDS011;7851;52.260;6.030;2023-05-15T01:09:24;20.7;;;17.3;;
15498;SDS011;7851;52.260;6.030;2023-05-15T01:10:24;16.9;;;15.2;;
15498;SDS011;7851;52.260;6.030;2023-05-15T01:11:26;19.1;;;15.5;;
15498;SDS011;7851;52.260;6.030;2023-05-15T01:12:24;16.8;;;15;;
15498;SDS011;7851;52.260;6.030;2023-05-15T01:13:24;18.1;;;16.2;;
15498;SDS011;7851;52.260;6.030;2023-05-15T01:14:24;17.8;;;14.5;;
15498;SDS011;7851;52.260;6.030;2023-05-15T01:15:24;15.7;;;14;;
15498;SDS011;7851;52.260;6.030;2023-05-15T01:16:24;22.2;;;16.3;;
15498;SDS011;7851;52.260;6.030;2023-05-15T01:17:24;18.7;;;15.5;;
15498;SDS011;7851;52.260;6.030;2023-05-15T01:18:24;18.5;;;14.7;;
15498;SDS011;7851;52.260;6.030;2023-05-15T01:19:24;17.9;;;15.1;;
15498;SDS011;7851;52.260;6.030;2023-05-15T01:20:24;18;;;15.2;;
15498;SDS011;7851;52.260;6.030;2023-05-15T01:21:26;17.2;;;15.2;;
15498;SDS011;7851;52.260;6.030;2023-05-15T01:22:29;17.3;;;15.5;;
15498;SDS011;7851;52.260;6.030;2023-05-15T01:23:27;17.7;;;15;;
15498;SDS011;7851;52.260;6.030;2023-05-15T01:24:30;18.3;;;14.6;;
15498;SDS011;7851;52.260;6.030;2023-05-15T01:25:56;15.5;;;13.9;;
15498;SDS011;7851;52.260;6.030;2023-05-15T01:26:31;16;;;14.1;;
15498;SDS011;7851;52.260;6.030;2023-05-15T01:27:25;17;;;15.3;;
15498;SDS011;7851;52.260;6.030;2023-05-15T01:28:25;16.6;;;14.6;;
15498;SDS011;7851;52.260;6.030;2023-05-15T01:29:26;18;;;15.5;;
15498;SDS011;7851;52.260;6.030;2023-05-15T01:30:26;15.8;;;13.8;;
15498;SDS011;7851;52.260;6.030;2023-05-15T01:31:24;16.3;;;14.5;;
15498;SDS011;7851;52.260;6.030;2023-05-15T01:32:30;17.6;;;15.7;;
15498;SDS011;7851;52.260;6.030;2023-05-15T01:33:25;16.7;;;14.9;;
15498;SDS011;7851;52.260;6.030;2023-05-15T01:34:26;17.4;;;15;;
15498;SDS011;7851;52.260;6.030;2023-05-15T01:35:26;17.8;;;14.8;;
15498;SDS011;7851;52.260;6.030;2023-05-15T01:36:25;15.4;;;13.8;;
15498;SDS011;7851;52.260;6.030;2023-05-15T01:37:24;16.3;;;14.3;;
15498;SDS011;7851;52.260;6.030;2023-05-15T01:38:26;18.2;;;15.1;;
15498;SDS011;7851;52.260;6.030;2023-05-15T01:39:25;15.9;;;14.2;;
15498;SDS011;7851;52.260;6.030;2023-05-15T01:40:24;18.9;;;14.6;;
15498;SDS011;7851;52.260;6.030;2023-05-15T01:41:26;16.9;;;14.4;;
15498;SDS011;7851;52.260;6.030;2023-05-15T01:42:25;16;;;13.8;;
15498;SDS011;7851;52.260;6.030;2023-05-15T01:43:25;15.3;;;13.6;;
15498;SDS011;7851;52.260;6.030;2023-05-15T01:44:25;16.4;;;13.3;;
15498;SDS011;7851;52.260;6.030;2023-05-15T01:45:24;18.3;;;14.2;;
15498;SDS011;7851;52.260;6.030;2023-05-15T01:46:24;18.6;;;14.3;;
15498;SDS011;7851;52.260;6.030;2023-05-15T01:47:33;19.3;;;14.5;;
15498;SDS011;7851;52.260;6.030;2023-05-15T01:48:24;18.5;;;14.6;;
15498;SDS011;7851;52.260;6.030;2023-05-15T01:49:25;16.1;;;14.4;;
15498;SDS011;7851;52.260;6.030;2023-05-15T01:50:24;18.6;;;15.2;;
15498;SDS011;7851;52.260;6.030;2023-05-15T01:51:24;18.3;;;15.8;;
15498;SDS011;7851;52.260;6.030;2023-05-15T01:52:25;16.8;;;15;;
15498;SDS011;7851;52.260;6.030;2023-05-15T01:53:24;17.8;;;14.9;;
15498;SDS011;7851;52.260;6.030;2023-05-15T01:54:24;16.9;;;15.1;;
15498;SDS011;7851;52.260;6.030;2023-05-15T01:55:24;18;;;15.5;;
15498;SDS011;7851;52.260;6.030;2023-05-15T01:56:24;17.3;;;15.5;;
15498;SDS011;7851;52.260;6.030;2023-05-15T01:57:24;17.5;;;15;;
15498;SDS011;7851;52.260;6.030;2023-05-15T01:58:24;16.8;;;15;;
15498;SDS011;7851;52.260;6.030;2023-05-15T01:59:24;19.1;;;14.5;;
15498;SDS011;7851;52.260;6.030;2023-05-15T02:00:24;16.9;;;15.2;;
15498;SDS011;7851;52.260;6.030;2023-05-15T02:01:24;17.1;;;14.7;;
15498;SDS011;7851;52.260;6.030;2023-05-15T02:02:24;22.8;;;14.7;;
15498;SDS011;7851;52.260;6.030;2023-05-15T02:03:24;16.5;;;14.8;;
15498;SDS011;7851;52.260;6.030;2023-05-15T02:04:24;16.9;;;14.8;;
15498;SDS011;7851;52.260;6.030;2023-05-15T02:05:24;19.9;;;14.9;;
15498;SDS011;7851;52.260;6.030;2023-05-15T02:06:24;17.2;;;13.6;;
15498;SDS011;7851;52.260;6.030;2023-05-15T02:07:24;17.4;;;14.7;;
15498;SDS011;7851;52.260;6.030;2023-05-15T02:08:24;17.5;;;15.4;;
15498;SDS011;7851;52.260;6.030;2023-05-15T02:09:24;17.2;;;15.3;;
15498;SDS011;7851;52.260;6.030;2023-05-15T02:10:24;17.1;;;15.4;;
15498;SDS011;7851;52.260;6.030;2023-05-15T02:11:24;17.7;;;14.4;;
15498;SDS011;7851;52.260;6.030;2023-05-15T02:12:24;17.2;;;15.4;;
15498;SDS011;7851;52.260;6.030;2023-05-15T02:13:24;19.6;;;16.2;;
15498;SDS011;7851;52.260;6.030;2023-05-15T02:14:24;18.1;;;14.7;;
15498;SDS011;7851;52.260;6.030;2023-05-15T02:15:24;19.2;;;15.5;;
15498;SDS011;7851;52.260;6.030;2023-05-15T02:16:24;17.5;;;15.7;;
15498;SDS011;7851;52.260;6.030;2023-05-15T02:17:24;18.2;;;15.7;;
15498;SDS011;7851;52.260;6.030;2023-05-15T02:18:24;21;;;14.7;;
15498;SDS011;7851;52.260;6.030;2023-05-15T02:19:24;21.5;;;16.6;;
15498;SDS011;7851;52.260;6.030;2023-05-15T02:20:24;18.6;;;16.3;;
15498;SDS011;7851;52.260;6.030;2023-05-15T02:21:24;16.9;;;15;;
15498;SDS011;7851;52.260;6.030;2023-05-15T02:22:24;16.2;;;14.6;;
15498;SDS011;7851;52.260;6.030;2023-05-15T02:23:24;17.5;;;15.7;;
15498;SDS011;7851;52.260;6.030;2023-05-15T02:24:24;16.2;;;14.5;;
15498;SDS011;7851;52.260;6.030;2023-05-15T02:25:25;17.8;;;15.6;;
15498;SDS011;7851;52.260;6.030;2023-05-15T02:26:27;17.7;;;14.5;;
15498;SDS011;7851;52.260;6.030;2023-05-15T02:27:25;17.6;;;15.4;;
15498;SDS011;7851;52.260;6.030;2023-05-15T02:28:27;17;;;14.8;;
15498;SDS011;7851;52.260;6.030;2023-05-15T02:29:26;16.8;;;14.5;;
15498;SDS011;7851;52.260;6.030;2023-05-15T02:30:27;16.7;;;14.7;;
15498;SDS011;7851;52.260;6.030;2023-05-15T02:31:25;15.4;;;13.7;;
15498;SDS011;7851;52.260;6.030;2023-05-15T02:32:26;16.6;;;14.9;;
15498;SDS011;7851;52.260;6.030;2023-05-15T02:33:26;17.2;;;14.4;;
15498;SDS011;7851;52.260;6.030;2023-05-15T02:34:25;22;;;15.9;;
15498;SDS011;7851;52.260;6.030;2023-05-15T02:35:25;18.1;;;16.2;;
15498;SDS011;7851;52.260;6.030;2023-05-15T02:36:26;16.9;;;15;;
15498;SDS011;7851;52.260;6.030;2023-05-15T02:37:26;18;;;15.2;;
15498;SDS011;7851;52.260;6.030;2023-05-15T02:38:25;17.1;;;14.6;;
15498;SDS011;7851;52.260;6.030;2023-05-15T02:39:24;17.5;;;15.6;;
15498;SDS011;7851;52.260;6.030;2023-05-15T02:40:24;20.5;;;16.1;;
15498;SDS011;7851;52.260;6.030;2023-05-15T02:41:24;18.4;;;15.8;;
15498;SDS011;7851;52.260;6.030;2023-05-15T02:42:24;18.2;;;16.2;;
15498;SDS011;7851;52.260;6.030;2023-05-15T02:43:24;18.3;;;16.3;;
15498;SDS011;7851;52.260;6.030;2023-05-15T02:44:24;17.3;;;14.7;;
15498;SDS011;7851;52.260;6.030;2023-05-15T02:45:24;16.4;;;14.3;;
15498;SDS011;7851;52.260;6.030;2023-05-15T02:46:24;16.3;;;14.6;;
15498;SDS011;7851;52.260;6.030;2023-05-15T02:47:24;18;;;16.1;;
15498;SDS011;7851;52.260;6.030;2023-05-15T02:48:24;17.5;;;15.6;;
15498;SDS011;7851;52.260;6.030;2023-05-15T02:49:24;18.8;;;16.2;;
15498;SDS011;7851;52.260;6.030;2023-05-15T02:50:24;17.7;;;14.8;;
15498;SDS011;7851;52.260;6.030;2023-05-15T02:51:24;18.3;;;14.9;;
15498;SDS011;7851;52.260;6.030;2023-05-15T02:52:24;20.1;;;15.7;;
15498;SDS011;7851;52.260;6.030;2023-05-15T02:53:24;19.9;;;15.8;;
15498;SDS011;7851;52.260;6.030;2023-05-15T02:54:24;18.1;;;16.3;;
15498;SDS011;7851;52.260;6.030;2023-05-15T02:55:24;22.3;;;16;;
15498;SDS011;7851;52.260;6.030;2023-05-15T02:56:24;19.8;;;15.4;;
15498;SDS011;7851;52.260;6.030;2023-05-15T02:57:24;19.7;;;16.1;;
15498;SDS011;7851;52.260;6.030;2023-05-15T02:58:24;16.8;;;15.1;;
15498;SDS011;7851;52.260;6.030;2023-05-15T02:59:24;17.8;;;14.8;;
15498;SDS011;7851;52.260;6.030;2023-05-15T03:00:24;17.6;;;14.3;;
15498;SDS011;7851;52.260;6.030;2023-05-15T03:01:24;17.6;;;14.9;;
15498;SDS011;7851;52.260;6.030;2023-05-15T03:02:24;17.7;;;15;;
15498;SDS011;7851;52.260;6.030;2023-05-15T03:03:24;20.5;;;15.2;;
15498;SDS011;7851;52.260;6.030;2023-05-15T03:04:24;17.4;;;15.5;;
15498;SDS011;7851;52.260;6.030;2023-05-15T03:05:24;17;;;14;;
15498;SDS011;7851;52.260;6.030;2023-05-15T03:06:24;18.8;;;15.7;;
15498;SDS011;7851;52.260;6.030;2023-05-15T03:07:24;15.1;;;13.6;;
15498;SDS011;7851;52.260;6.030;2023-05-15T03:08:24;16.8;;;15;;
15498;SDS011;7851;52.260;6.030;2023-05-15T03:09:24;16.8;;;15;;
15498;SDS011;7851;52.260;6.030;2023-05-15T03:10:24;16.7;;;15;;
15498;SDS011;7851;52.260;6.030;2023-05-15T03:11:24;16.1;;;14.5;;
15498;SDS011;7851;52.260;6.030;2023-05-15T03:12:24;16.2;;;14.1;;
15498;SDS011;7851;52.260;6.030;2023-05-15T03:13:24;17;;;14.4;;
15498;SDS011;7851;52.260;6.030;2023-05-15T03:14:24;17.6;;;14.9;;
15498;SDS011;7851;52.260;6.030;2023-05-15T03:15:24;17.2;;;15.4;;
15498;SDS011;7851;52.260;6.030;2023-05-15T03:16:24;18.6;;;16.6;;
15498;SDS011;7851;52.260;6.030;2023-05-15T03:17:24;18.7;;;16.7;;
15498;SDS011;7851;52.260;6.030;2023-05-15T03:18:24;18;;;16.2;;
15498;SDS011;7851;52.260;6.030;2023-05-15T03:19:24;18.3;;;15.5;;
15498;SDS011;7851;52.260;6.030;2023-05-15T03:20:24;17.8;;;15.9;;
15498;SDS011;7851;52.260;6.030;2023-05-15T03:21:24;18.8;;;15.1;;
15498;SDS011;7851;52.260;6.030;2023-05-15T03:22:24;18.4;;;15.3;;
15498;SDS011;7851;52.260;6.030;2023-05-15T03:23:24;17.7;;;15.8;;
15498;SDS011;7851;52.260;6.030;2023-05-15T03:24:24;18.6;;;14.5;;
15498;SDS011;7851;52.260;6.030;2023-05-15T03:25:24;18.7;;;16.7;;
15498;SDS011;7851;52.260;6.030;2023-05-15T03:26:24;22.1;;;16.1;;
15498;SDS011;7851;52.260;6.030;2023-05-15T03:27:24;17.7;;;15.2;;
15498;SDS011;7851;52.260;6.030;2023-05-15T03:28:24;17.6;;;14.9;;
15498;SDS011;7851;52.260;6.030;2023-05-15T03:29:24;19.9;;;15.4;;
15498;SDS011;7851;52.260;6.030;2023-05-15T03:30:24;18.3;;;16.3;;
15498;SDS011;7851;52.260;6.030;2023-05-15T03:31:24;19.5;;;16;;
15498;SDS011;7851;52.260;6.030;2023-05-15T03:32:24;16.2;;;14.6;;
15498;SDS011;7851;52.260;6.030;2023-05-15T03:33:24;20.9;;;16.7;;
15498;SDS011;7851;52.260;6.030;2023-05-15T03:34:24;17.3;;;15.4;;
15498;SDS011;7851;52.260;6.030;2023-05-15T03:35:24;17.6;;;15.7;;
15498;SDS011;7851;52.260;6.030;2023-05-15T03:36:24;17.5;;;15.7;;
15498;SDS011;7851;52.260;6.030;2023-05-15T03:37:24;18.9;;;16.4;;
15498;SDS011;7851;52.260;6.030;2023-05-15T03:38:24;19.6;;;17.5;;
15498;SDS011;7851;52.260;6.030;2023-05-15T03:39:24;18.9;;;16.9;;
15498;SDS011;7851;52.260;6.030;2023-05-15T03:40:24;18.6;;;16.2;;
15498;SDS011;7851;52.260;6.030;2023-05-15T03:41:24;19.1;;;16.5;;
15498;SDS011;7851;52.260;6.030;2023-05-15T03:42:24;24.8;;;16.1;;
15498;SDS011;7851;52.260;6.030;2023-05-15T03:43:24;19.5;;;16.5;;
15498;SDS011;7851;52.260;6.030;2023-05-15T03:44:24;19.3;;;16.1;;
15498;SDS011;7851;52.260;6.030;2023-05-15T03:45:24;20.8;;;16.5;;
15498;SDS011;7851;52.260;6.030;2023-05-15T03:46:24;21.2;;;16.6;;
15498;SDS011;7851;52.260;6.030;2023-05-15T03:47:24;17.3;;;15.5;;
15498;SDS011;7851;52.260;6.030;2023-05-15T03:48:24;18.9;;;16.9;;
15498;SDS011;7851;52.260;6.030;2023-05-15T03:49:24;19.2;;;17.2;;
15498;SDS011;7851;52.260;6.030;2023-05-15T03:50:24;19.4;;;16.7;;
15498;SDS011;7851;52.260;6.030;2023-05-15T03:51:24;20.5;;;16.8;;
15498;SDS011;7851;52.260;6.030;2023-05-15T03:52:24;23.7;;;16.4;;
15498;SDS011;7851;52.260;6.030;2023-05-15T03:53:24;18.1;;;16;;
15498;SDS011;7851;52.260;6.030;2023-05-15T03:54:24;18.9;;;16.9;;
15498;SDS011;7851;52.260;6.030;2023-05-15T03:55:24;21.3;;;19;;
15498;SDS011;7851;52.260;6.030;2023-05-15T03:56:24;21.7;;;18.7;;
15498;SDS011;7851;52.260;6.030;2023-05-15T03:57:24;19.8;;;17.7;;
15498;SDS011;7851;52.260;6.030;2023-05-15T03:58:24;20.4;;;18.2;;
15498;SDS011;7851;52.260;6.030;2023-05-15T03:59:24;17.9;;;16;;
15498;SDS011;7851;52.260;6.030;2023-05-15T04:00:24;21.7;;;16.8;;
15498;SDS011;7851;52.260;6.030;2023-05-15T04:01:24;22.8;;;16.7;;
15498;SDS011;7851;52.260;6.030;2023-05-15T04:02:24;19.6;;;16.3;;
15498;SDS011;7851;52.260;6.030;2023-05-15T04:03:24;18.5;;;16.5;;
15498;SDS011;7851;52.260;6.030;2023-05-15T04:04:24;19.7;;;17.3;;
15498;SDS011;7851;52.260;6.030;2023-05-15T04:05:24;19.5;;;17.4;;
15498;SDS011;7851;52.260;6.030;2023-05-15T04:06:24;20.3;;;17.1;;
15498;SDS011;7851;52.260;6.030;2023-05-15T04:07:25;21.9;;;17.6;;
15498;SDS011;7851;52.260;6.030;2023-05-15T04:08:24;18.2;;;16.3;;
15498;SDS011;7851;52.260;6.030;2023-05-15T04:09:24;17.8;;;15.7;;
15498;SDS011;7851;52.260;6.030;2023-05-15T04:10:24;19;;;16.5;;
15498;SDS011;7851;52.260;6.030;2023-05-15T04:11:24;21.1;;;17.8;;
15498;SDS011;7851;52.260;6.030;2023-05-15T04:12:24;21.4;;;16.1;;
15498;SDS011;7851;52.260;6.030;2023-05-15T04:13:24;18.3;;;16.4;;
15498;SDS011;7851;52.260;6.030;2023-05-15T04:14:24;19.4;;;17.1;;
15498;SDS011;7851;52.260;6.030;2023-05-15T04:15:24;25.6;;;18.2;;
15498;SDS011;7851;52.260;6.030;2023-05-15T04:16:24;19.7;;;16.8;;
15498;SDS011;7851;52.260;6.030;2023-05-15T04:17:24;23.4;;;16.5;;
15498;SDS011;7851;52.260;6.030;2023-05-15T04:18:24;18.7;;;16.7;;
15498;SDS011;7851;52.260;6.030;2023-05-15T04:19:24;20.8;;;16.4;;
15498;SDS011;7851;52.260;6.030;2023-05-15T04:20:24;16.7;;;15;;
15498;SDS011;7851;52.260;6.030;2023-05-15T04:21:24;21.5;;;16;;
15498;SDS011;7851;52.260;6.030;2023-05-15T04:22:24;19.9;;;17.1;;
15498;SDS011;7851;52.260;6.030;2023-05-15T04:23:24;20.1;;;17.6;;
15498;SDS011;7851;52.260;6.030;2023-05-15T04:24:24;19.8;;;16.9;;
15498;SDS011;7851;52.260;6.030;2023-05-15T04:25:24;18.8;;;16.5;;
15498;SDS011;7851;52.260;6.030;2023-05-15T04:26:24;19.9;;;17.5;;
15498;SDS011;7851;52.260;6.030;2023-05-15T04:27:24;22.3;;;18.6;;
15498;SDS011;7851;52.260;6.030;2023-05-15T04:28:24;22;;;18.2;;
15498;SDS011;7851;52.260;6.030;2023-05-15T04:29:24;20.4;;;18;;
15498;SDS011;7851;52.260;6.030;2023-05-15T04:30:24;21.5;;;17.4;;
15498;SDS011;7851;52.260;6.030;2023-05-15T04:31:24;22.4;;;18.4;;
15498;SDS011;7851;52.260;6.030;2023-05-15T04:32:24;22.3;;;18.7;;
15498;SDS011;7851;52.260;6.030;2023-05-15T04:33:24;21.9;;;18.2;;
15498;SDS011;7851;52.260;6.030;2023-05-15T04:34:24;22.8;;;19;;
15498;SDS011;7851;52.260;6.030;2023-05-15T04:35:24;21.4;;;18;;
15498;SDS011;7851;52.260;6.030;2023-05-15T04:36:24;25.8;;;19.9;;
15498;SDS011;7851;52.260;6.030;2023-05-15T04:37:24;26.2;;;20;;
15498;SDS011;7851;52.260;6.030;2023-05-15T04:38:24;19.9;;;17.8;;
15498;SDS011;7851;52.260;6.030;2023-05-15T04:39:24;24.8;;;19.2;;
15498;SDS011;7851;52.260;6.030;2023-05-15T04:40:24;26.8;;;21.3;;
15498;SDS011;7851;52.260;6.030;2023-05-15T04:41:24;31.4;;;21.6;;
15498;SDS011;7851;52.260;6.030;2023-05-15T04:42:24;32;;;22.6;;
15498;SDS011;7851;52.260;6.030;2023-05-15T04:43:24;28.1;;;22;;
15498;SDS011;7851;52.260;6.030;2023-05-15T04:44:24;28.6;;;23.3;;
15498;SDS011;7851;52.260;6.030;2023-05-15T04:45:24;30.7;;;24.2;;
15498;SDS011;7851;52.260;6.030;2023-05-15T04:46:24;29.5;;;24.3;;
15498;SDS011;7851;52.260;6.030;2023-05-15T04:47:24;35.3;;;25.3;;
15498;SDS011;7851;52.260;6.030;2023-05-15T04:48:24;31.1;;;25.2;;
15498;SDS011;7851;52.260;6.030;2023-05-15T04:49:24;34;;;26.3;;
15498;SDS011;7851;52.260;6.030;2023-05-15T04:50:24;39.9;;;27;;
15498;SDS011;7851;52.260;6.030;2023-05-15T04:51:24;29.7;;;25.7;;
15498;SDS011;7851;52.260;6.030;2023-05-15T04:52:24;35.6;;;27.5;;
15498;SDS011;7851;52.260;6.030;2023-05-15T04:53:24;33.2;;;26.2;;
15498;SDS011;7851;52.260;6.030;2023-05-15T04:54:24;35.8;;;27.5;;
15498;SDS011;7851;52.260;6.030;2023-05-15T04:55:24;35.4;;;27.7;;
15498;SDS011;7851;52.260;6.030;2023-05-15T04:56:24;35.3;;;26.1;;
15498;SDS011;7851;52.260;6.030;2023-05-15T04:57:24;35.2;;;27;;
15498;SDS011;7851;52.260;6.030;2023-05-15T04:58:24;38.2;;;27.3;;
15498;SDS011;7851;52.260;6.030;2023-05-15T04:59:24;41.5;;;28.2;;
15498;SDS011;7851;52.260;6.030;2023-05-15T05:00:24;36.1;;;26.9;;
15498;SDS011;7851;52.260;6.030;2023-05-15T05:01:24;37.6;;;28.1;;
15498;SDS011;7851;52.260;6.030;2023-05-15T05:02:24;39;;;30.2;;
15498;SDS011;7851;52.260;6.030;2023-05-15T05:03:24;36.6;;;28.3;;
15498;SDS011;7851;52.260;6.030;2023-05-15T05:04:24;37.4;;;28.9;;
15498;SDS011;7851;52.260;6.030;2023-05-15T05:05:24;40.6;;;28.7;;
15498;SDS011;7851;52.260;6.030;2023-05-15T05:06:24;33.9;;;27.1;;
15498;SDS011;7851;52.260;6.030;2023-05-15T05:07:24;33.9;;;28.4;;
15498;SDS011;7851;52.260;6.030;2023-05-15T05:08:24;40.4;;;29.4;;
15498;SDS011;7851;52.260;6.030;2023-05-15T05:09:24;39.5;;;29.2;;
15498;SDS011;7851;52.260;6.030;2023-05-15T05:10:24;39.8;;;26.2;;
15498;SDS011;7851;52.260;6.030;2023-05-15T05:11:24;35.3;;;26.8;;
15498;SDS011;7851;52.260;6.030;2023-05-15T05:12:24;43.9;;;27;;
15498;SDS011;7851;52.260;6.030;2023-05-15T05:13:24;44.1;;;27.4;;
15498;SDS011;7851;52.260;6.030;2023-05-15T05:14:25;38.9;;;27.4;;
15498;SDS011;7851;52.260;6.030;2023-05-15T05:15:24;36.1;;;27.6;;
15498;SDS011;7851;52.260;6.030;2023-05-15T05:16:24;43.7;;;27.5;;
15498;SDS011;7851;52.260;6.030;2023-05-15T05:17:24;43.6;;;28.2;;
15498;SDS011;7851;52.260;6.030;2023-05-15T05:18:24;34.2;;;25.9;;
15498;SDS011;7851;52.260;6.030;2023-05-15T05:19:24;31.4;;;25.5;;
15498;SDS011;7851;52.260;6.030;2023-05-15T05:20:24;32.5;;;26.8;;
15498;SDS011;7851;52.260;6.030;2023-05-15T05:21:24;39.1;;;29.9;;
15498;SDS011;7851;52.260;6.030;2023-05-15T05:22:24;35.3;;;28.1;;
15498;SDS011;7851;52.260;6.030;2023-05-15T05:23:24;37.4;;;28.2;;
15498;SDS011;7851;52.260;6.030;2023-05-15T05:24:24;33.3;;;28.1;;
15498;SDS011;7851;52.260;6.030;2023-05-15T05:25:24;34.7;;;29;;
15498;SDS011;7851;52.260;6.030;2023-05-15T05:26:24;41.4;;;29.4;;
15498;SDS011;7851;52.260;6.030;2023-05-15T05:27:24;39.4;;;30.8;;
15498;SDS011;7851;52.260;6.030;2023-05-15T05:28:24;38.1;;;29.7;;
15498;SDS011;7851;52.260;6.030;2023-05-15T05:29:24;38.1;;;29.3;;
15498;SDS011;7851;52.260;6.030;2023-05-15T05:30:24;33.6;;;28.9;;
15498;SDS011;7851;52.260;6.030;2023-05-15T05:31:24;39.4;;;29.3;;
15498;SDS011;7851;52.260;6.030;2023-05-15T05:32:24;42.5;;;30.4;;
15498;SDS011;7851;52.260;6.030;2023-05-15T05:33:24;39.4;;;27.7;;
15498;SDS011;7851;52.260;6.030;2023-05-15T05:34:24;32.7;;;27.8;;
15498;SDS011;7851;52.260;6.030;2023-05-15T05:35:24;42.7;;;27.5;;
15498;SDS011;7851;52.260;6.030;2023-05-15T05:36:24;35.2;;;29;;
15498;SDS011;7851;52.260;6.030;2023-05-15T05:37:24;35.8;;;30.4;;
15498;SDS011;7851;52.260;6.030;2023-05-15T05:38:24;41.4;;;31.5;;
15498;SDS011;7851;52.260;6.030;2023-05-15T05:39:24;37.1;;;28.4;;
15498;SDS011;7851;52.260;6.030;2023-05-15T05:40:24;41.1;;;31.5;;
15498;SDS011;7851;52.260;6.030;2023-05-15T05:41:24;42.8;;;29.6;;
15498;SDS011;7851;52.260;6.030;2023-05-15T05:42:24;38.5;;;31.4;;
15498;SDS011;7851;52.260;6.030;2023-05-15T05:43:24;38.1;;;28.8;;
15498;SDS011;7851;52.260;6.030;2023-05-15T05:44:24;33.7;;;27.6;;
15498;SDS011;7851;52.260;6.030;2023-05-15T05:45:24;33.2;;;27.7;;
15498;SDS011;7851;52.260;6.030;2023-05-15T05:46:24;35.9;;;29.5;;
15498;SDS011;7851;52.260;6.030;2023-05-15T05:47:24;35.9;;;28.5;;
15498;SDS011;7851;52.260;6.030;2023-05-15T05:48:24;33.8;;;29.3;;
15498;SDS011;7851;52.260;6.030;2023-05-15T05:49:24;33.5;;;28.7;;
15498;SDS011;7851;52.260;6.030;2023-05-15T05:50:24;33;;;28.4;;
15498;SDS011;7851;52.260;6.030;2023-05-15T05:51:24;32.1;;;28.3;;
15498;SDS011;7851;52.260;6.030;2023-05-15T05:52:24;33.6;;;29;;
15498;SDS011;7851;52.260;6.030;2023-05-15T05:53:24;37.3;;;29.3;;
15498;SDS011;7851;52.260;6.030;2023-05-15T05:54:24;38.4;;;28.3;;
15498;SDS011;7851;52.260;6.030;2023-05-15T05:55:24;32.7;;;28.1;;
15498;SDS011;7851;52.260;6.030;2023-05-15T05:56:24;34;;;28.3;;
15498;SDS011;7851;52.260;6.030;2023-05-15T05:57:24;30.1;;;26.7;;
15498;SDS011;7851;52.260;6.030;2023-05-15T05:58:24;32.5;;;25.7;;
15498;SDS011;7851;52.260;6.030;2023-05-15T05:59:24;31.5;;;25.5;;
15498;SDS011;7851;52.260;6.030;2023-05-15T06:00:24;30.8;;;24.9;;
15498;SDS011;7851;52.260;6.030;2023-05-15T06:01:24;30.3;;;26;;
15498;SDS011;7851;52.260;6.030;2023-05-15T06:02:24;28;;;25.1;;
15498;SDS011;7851;52.260;6.030;2023-05-15T06:03:24;28.3;;;25.3;;
15498;SDS011;7851;52.260;6.030;2023-05-15T06:04:24;33.1;;;25;;
15498;SDS011;7851;52.260;6.030;2023-05-15T06:05:24;29.7;;;25.3;;
15498;SDS011;7851;52.260;6.030;2023-05-15T06:06:24;27.6;;;24.6;;
15498;SDS011;7851;52.260;6.030;2023-05-15T06:07:24;30.5;;;25.2;;
15498;SDS011;7851;52.260;6.030;2023-05-15T06:08:24;29.6;;;25.9;;
15498;SDS011;7851;52.260;6.030;2023-05-15T06:09:24;27.4;;;24.5;;